Carey, Texas
Current Conditions -  °F | °C
As of 12:53 PM on Friday 21 Nov 2014 (Local Time) from KCDS Reporting Station
Haze Haze  
Wind Chill: 44°   Ceiling: 500
Heat Index: 44°   Visibility: 5mi
Dew Point: 40°   Wind: 0mph
Humidity: 85%   Direction: NA
Pressure: 30.04"   Gusts: NA
Location:  34.47°N, 100.33°W
Report Text: KCDS 211853Z AUTO 00000KT 5SM BR OVC005 07/04 A3004 RMK AO2 SLP176 T00670044
Loading
Personal Weather Stations






























Interactive Weather Map New forecast layout! Learn more

10-Day Weather Forecast

Advertisements
Track Severe Weather on mobile